39.6°F
Current conditions from King Hill
Updated every 5 minutes
 
  Friday April 18, 2014

Station Historical Data
Daily Summary for March 26, 2012 Units:  Both    English   Metric
« Previous Day
Next Day »
Daily Weekly Monthly Yearly Custom
  High: Low: Average:
Temperature: 44.2 °F /  6.8 °C 23.0 °F /  -5 °C 29.7 °F /  -1.3 °C
Dew Point: 41.7 °F /  5.4 °C 2.8 °F /  -16.2 °C 17.9 °F /  -7.8 °C
Humidity: 91% 38% 63%
Wind Speed: 17.0mph /  27.4km/h - 6.7mph /  10.8km/h
Wind Gust: 31.0mph /  49.9km/h - -
Wind- - NW
Pressure: 30.13 in /  1020.2 hPa 29.62 in /  1002.9 hPa -
Precipitation: 0.10 in /  2.5 mm    
Historical Graphs
 
 
Tabular Data for March 26, 2012
Time Temperature Dew Point Pressure Wind Wind Speed Wind Gust Humidity Daily Rainfall
00:05 43.8 °F /  6.6 °C 39.9 °F /  4.4 °C 29.67in /  1004.6hPa SSW 2.0mph /  3.2km/h 7.0mph /  11.3km/h 86% 0.00in /  0mm
00:09 43.8 °F /  6.6 °C 39.9 °F /  4.4 °C 29.68in /  1005hPa SSW 4.0mph /  6.4km/h 7.0mph /  11.3km/h 86% 0.00in /  0mm
00:14 43.8 °F /  6.6 °C 39.9 °F /  4.4 °C 29.67in /  1004.6hPa SSW 4.0mph /  6.4km/h 7.0mph /  11.3km/h 86% 0.00in /  0mm
00:19 43.8 °F /  6.6 °C 39.9 °F /  4.4 °C 29.67in /  1004.6hPa SSW 3.0mph /  4.8km/h 7.0mph /  11.3km/h 86% 0.00in /  0mm
00:24 43.7 °F /  6.5 °C 39.8 °F /  4.3 °C 29.67in /  1004.6hPa SSW 3.0mph /  4.8km/h 7.0mph /  11.3km/h 86% 0.00in /  0mm
00:29 43.8 °F /  6.6 °C 39.9 °F /  4.4 °C 29.67in /  1004.6hPa SSW 3.0mph /  4.8km/h 9.0mph /  14.5km/h 86% 0.00in /  0mm
00:34 43.8 °F /  6.6 °C 39.9 °F /  4.4 °C 29.66in /  1004.3hPa SSW 1.0mph /  1.6km/h 9.0mph /  14.5km/h 86% 0.00in /  0mm
00:40 43.8 °F /  6.6 °C 39.9 °F /  4.4 °C 29.66in /  1004.3hPa SSW 3.0mph /  4.8km/h 7.0mph /  11.3km/h 86% 0.00in /  0mm
00:49 43.8 °F /  6.6 °C 39.9 °F /  4.4 °C 29.66in /  1004.3hPa SSW 3.0mph /  4.8km/h 6.0mph /  9.7km/h 86% 0.00in /  0mm
00:54 43.8 °F /  6.6 °C 40.2 °F /  4.6 °C 29.66in /  1004.3hPa SSW 2.0mph /  3.2km/h 6.0mph /  9.7km/h 87% 0.00in /  0mm
00:59 43.8 °F /  6.6 °C 40.2 °F /  4.6 °C 29.66in /  1004.3hPa SSW 4.0mph /  6.4km/h 7.0mph /  11.3km/h 87% 0.00in /  0mm
01:04 43.9 °F /  6.6 °C 40.3 °F /  4.6 °C 29.65in /  1003.9hPa Calm   7.0mph /  11.3km/h 87% 0.00in /  0mm
01:09 43.9 °F /  6.6 °C 40.3 °F /  4.6 °C 29.65in /  1003.9hPa Calm   5.0mph /  8km/h 87% 0.00in /  0mm
01:14 43.8 °F /  6.6 °C 40.2 °F /  4.6 °C 29.65in /  1003.9hPa Calm   3.0mph /  4.8km/h 87% 0.00in /  0mm
01:19 43.8 °F /  6.6 °C 40.2 °F /  4.6 °C 29.65in /  1003.9hPa Calm   4.0mph /  6.4km/h 87% 0.01in /  0.3mm
01:24 43.8 °F /  6.6 °C 40.2 °F /  4.6 °C 29.65in /  1003.9hPa SSW 1.0mph /  1.6km/h 4.0mph /  6.4km/h 87% 0.01in /  0.3mm
01:30 43.8 °F /  6.6 °C 40.5 °F /  4.7 °C 29.64in /  1003.6hPa SSW 2.0mph /  3.2km/h 6.0mph /  9.7km/h 88% 0.01in /  0.3mm
01:39 43.8 °F /  6.6 °C 40.5 °F /  4.7 °C 29.64in /  1003.6hPa SSW 1.0mph /  1.6km/h 4.0mph /  6.4km/h 88% 0.01in /  0.3mm
01:44 43.8 °F /  6.6 °C 40.8 °F /  4.9 °C 29.64in /  1003.6hPa SSW 1.0mph /  1.6km/h 4.0mph /  6.4km/h 89% 0.01in /  0.3mm
01:50 43.7 °F /  6.5 °C 40.7 °F /  4.8 °C 29.64in /  1003.6hPa WNW 1.0mph /  1.6km/h 3.0mph /  4.8km/h 89% 0.01in /  0.3mm
01:54 43.6 °F /  6.4 °C 40.6 °F /  4.8 °C 29.64in /  1003.6hPa Calm   3.0mph /  4.8km/h 89% 0.01in /  0.3mm
01:59 43.5 °F /  6.4 °C 40.5 °F /  4.7 °C 29.64in /  1003.6hPa Calm   4.0mph /  6.4km/h 89% 0.01in /  0.3mm
02:04 43.4 °F /  6.3 °C 40.4 °F /  4.7 °C 29.63in /  1003.3hPa Calm   4.0mph /  6.4km/h 89% 0.01in /  0.3mm
02:09 43.3 °F /  6.3 °C 40.3 °F /  4.6 °C 29.63in /  1003.3hPa WSW 2.0mph /  3.2km/h 4.0mph /  6.4km/h 89% 0.01in /  0.3mm
02:14 43.4 °F /  6.3 °C 40.7 °F /  4.8 °C 29.63in /  1003.3hPa Calm   4.0mph /  6.4km/h 90% 0.01in /  0.3mm
02:19 43.3 °F /  6.3 °C 40.6 °F /  4.8 °C 29.62in /  1002.9hPa Calm   4.0mph /  6.4km/h 90% 0.01in /  0.3mm
02:24 43.2 °F /  6.2 °C 40.5 °F /  4.7 °C 29.63in /  1003.3hPa WSW 1.0mph /  1.6km/h 3.0mph /  4.8km/h 90% 0.01in /  0.3mm
02:29 43.3 °F /  6.3 °C 40.6 °F /  4.8 °C 29.63in /  1003.3hPa WSW 1.0mph /  1.6km/h 4.0mph /  6.4km/h 90% 0.01in /  0.3mm
02:34 43.6 °F /  6.4 °C 41.1 °F /  5.1 °C 29.63in /  1003.3hPa WNW 3.0mph /  4.8km/h 6.0mph /  9.7km/h 91% 0.01in /  0.3mm
02:39 43.9 °F /  6.6 °C 41.4 °F /  5.2 °C 29.63in /  1003.3hPa WNW 1.0mph /  1.6km/h 6.0mph /  9.7km/h 91% 0.01in /  0.3mm
02:44 44.1 °F /  6.7 °C 41.6 °F /  5.3 °C 29.63in /  1003.3hPa West 2.0mph /  3.2km/h 6.0mph /  9.7km/h 91% 0.01in /  0.3mm
02:49 44.2 °F /  6.8 °C 41.7 °F /  5.4 °C 29.64in /  1003.6hPa WNW 4.0mph /  6.4km/h 7.0mph /  11.3km/h 91% 0.02in /  0.5mm
02:54 44.1 °F /  6.7 °C 41.4 °F /  5.2 °C 29.66in /  1004.3hPa NNW 9.0mph /  14.5km/h 20.0mph /  32.2km/h 90% 0.05in /  1.3mm
02:59 42.3 °F /  5.7 °C 39.0 °F /  3.9 °C 29.67in /  1004.6hPa NNW 13.0mph /  20.9km/h 29.0mph /  46.7km/h 88% 0.07in /  1.8mm
03:04 40.4 °F /  4.7 °C 36.5 °F /  2.5 °C 29.67in /  1004.6hPa NNW 11.0mph /  17.7km/h 30.0mph /  48.3km/h 86% 0.08in /  2mm
03:09 38.8 °F /  3.8 °C 35.0 °F /  1.7 °C 29.68in /  1005hPa NNW 7.0mph /  11.3km/h 30.0mph /  48.3km/h 86% 0.08in /  2mm
03:14 37.7 °F /  3.2 °C 33.9 °F /  1.1 °C 29.68in /  1005hPa NNW 9.0mph /  14.5km/h 22.0mph /  35.4km/h 86% 0.09in /  2.3mm
03:19 36.8 °F /  2.7 °C 33.0 °F /  0.6 °C 29.69in /  1005.3hPa NNW 7.0mph /  11.3km/h 21.0mph /  33.8km/h 86% 0.09in /  2.3mm
03:24 35.9 °F /  2.2 °C 32.4 °F /  0.2 °C 29.69in /  1005.3hPa NNW 12.0mph /  19.3km/h 23.0mph /  37km/h 87% 0.09in /  2.3mm
03:29 35.4 °F /  1.9 °C 31.9 °F /  -0.1 °C 29.70in /  1005.6hPa NNW 8.0mph /  12.9km/h 26.0mph /  41.8km/h 87% 0.09in /  2.3mm
03:35 35.1 °F /  1.7 °C 31.9 °F /  -0.1 °C 29.69in /  1005.3hPa NNW 8.0mph /  12.9km/h 28.0mph /  45.1km/h 88% 0.09in /  2.3mm
03:40 34.9 °F /  1.6 °C 31.7 °F /  -0.2 °C 29.69in /  1005.3hPa NNW 8.0mph /  12.9km/h 28.0mph /  45.1km/h 88% 0.09in /  2.3mm
03:50 34.4 °F /  1.3 °C 31.5 °F /  -0.3 °C 29.70in /  1005.6hPa NNW 8.0mph /  12.9km/h 17.0mph /  27.4km/h 89% 0.09in /  2.3mm
03:55 34.2 °F /  1.2 °C 31.0 °F /  -0.6 °C 29.71in /  1006hPa NNW 6.0mph /  9.7km/h 17.0mph /  27.4km/h 88% 0.09in /  2.3mm
04:05 32.8 °F /  0.4 °C 29.6 °F /  -1.3 °C 29.72in /  1006.3hPa NNW 7.0mph /  11.3km/h 23.0mph /  37km/h 88% 0.10in /  2.5mm
04:14 32.3 °F /  0.2 °C 29.4 °F /  -1.4 °C 29.73in /  1006.7hPa NNW 6.0mph /  9.7km/h 23.0mph /  37km/h 89% 0.10in /  2.5mm
04:19 32.1 °F /  0.1 °C 29.2 °F /  -1.6 °C 29.74in /  1007hPa NW 9.0mph /  14.5km/h 18.0mph /  29km/h 89% 0.10in /  2.5mm
04:24 31.7 °F /  -0.2 °C 28.8 °F /  -1.8 °C 29.74in /  1007hPa NW 6.0mph /  9.7km/h 18.0mph /  29km/h 89% 0.10in /  2.5mm
04:29 31.4 °F /  -0.3 °C 28.5 °F /  -1.9 °C 29.75in /  1007.3hPa NNW 7.0mph /  11.3km/h 20.0mph /  32.2km/h 89% 0.10in /  2.5mm
04:34 31.3 °F /  -0.4 °C 28.7 °F /  -1.8 °C 29.75in /  1007.3hPa NNW 8.0mph /  12.9km/h 20.0mph /  32.2km/h 90% 0.10in /  2.5mm
04:39 31.0 °F /  -0.6 °C 28.4 °F /  -2 °C 29.75in /  1007.3hPa NW 11.0mph /  17.7km/h 26.0mph /  41.8km/h 90% 0.10in /  2.5mm
04:44 30.8 °F /  -0.7 °C 28.2 °F /  -2.1 °C 29.75in /  1007.3hPa NW 8.0mph /  12.9km/h 26.0mph /  41.8km/h 90% 0.10in /  2.5mm
04:49 30.7 °F /  -0.7 °C 28.1 °F /  -2.2 °C 29.75in /  1007.3hPa NNW 3.0mph /  4.8km/h 24.0mph /  38.6km/h 90% 0.10in /  2.5mm
04:54 30.5 °F /  -0.8 °C 27.9 °F /  -2.3 °C 29.75in /  1007.3hPa NW 9.0mph /  14.5km/h 19.0mph /  30.6km/h 90% 0.10in /  2.5mm
04:59 30.3 °F /  -0.9 °C 27.7 °F /  -2.4 °C 29.75in /  1007.3hPa NW 9.0mph /  14.5km/h 21.0mph /  33.8km/h 90% 0.10in /  2.5mm
05:04 30.1 °F /  -1.1 °C 27.5 °F /  -2.5 °C 29.76in /  1007.7hPa NW 10.0mph /  16.1km/h 21.0mph /  33.8km/h 90% 0.10in /  2.5mm
05:09 29.9 °F /  -1.2 °C 27.3 °F /  -2.6 °C 29.77in /  1008hPa NNW 8.0mph /  12.9km/h 26.0mph /  41.8km/h 90% 0.10in /  2.5mm
05:14 29.9 °F /  -1.2 °C 27.3 °F /  -2.6 °C 29.77in /  1008hPa NNW 5.0mph /  8km/h 26.0mph /  41.8km/h 90% 0.10in /  2.5mm
05:19 29.8 °F /  -1.2 °C 27.0 °F /  -2.8 °C 29.78in /  1008.4hPa NNW 6.0mph /  9.7km/h 20.0mph /  32.2km/h 89% 0.10in /  2.5mm
05:24 29.6 °F /  -1.3 °C 26.8 °F /  -2.9 °C 29.78in /  1008.4hPa NW 6.0mph /  9.7km/h 16.0mph /  25.7km/h 89% 0.10in /  2.5mm
05:29 29.4 °F /  -1.4 °C 26.6 °F /  -3 °C 29.78in /  1008.4hPa NNW 5.0mph /  8km/h 19.0mph /  30.6km/h 89% 0.10in /  2.5mm
05:34 29.2 °F /  -1.6 °C 26.1 °F /  -3.3 °C 29.78in /  1008.4hPa NNW 4.0mph /  6.4km/h 19.0mph /  30.6km/h 88% 0.10in /  2.5mm
05:39 29.2 °F /  -1.6 °C 25.8 °F /  -3.4 °C 29.78in /  1008.4hPa NNW 4.0mph /  6.4km/h 16.0mph /  25.7km/h 87% 0.10in /  2.5mm
05:44 28.9 °F /  -1.7 °C 25.2 °F /  -3.8 °C 29.78in /  1008.4hPa NNW 4.0mph /  6.4km/h 21.0mph /  33.8km/h 86% 0.10in /  2.5mm
05:49 28.8 °F /  -1.8 °C 24.9 °F /  -3.9 °C 29.79in /  1008.7hPa NW 5.0mph /  8km/h 21.0mph /  33.8km/h 85% 0.10in /  2.5mm
05:54 28.7 °F /  -1.8 °C 24.5 °F /  -4.2 °C 29.79in /  1008.7hPa NNW 4.0mph /  6.4km/h 20.0mph /  32.2km/h 84% 0.10in /  2.5mm
05:59 28.5 °F /  -1.9 °C 24.0 °F /  -4.4 °C 29.79in /  1008.7hPa NNW 7.0mph /  11.3km/h 20.0mph /  32.2km/h 83% 0.10in /  2.5mm
06:04 28.4 °F /  -2 °C 23.3 °F /  -4.8 °C 29.80in /  1009hPa NNW 6.0mph /  9.7km/h 18.0mph /  29km/h 81% 0.10in /  2.5mm
06:09 28.3 °F /  -2.1 °C 23.2 °F /  -4.9 °C 29.80in /  1009hPa NW 6.0mph /  9.7km/h 20.0mph /  32.2km/h 81% 0.10in /  2.5mm
06:14 28.2 °F /  -2.1 °C 22.8 °F /  -5.1 °C 29.80in /  1009hPa NNW 6.0mph /  9.7km/h 20.0mph /  32.2km/h 80% 0.10in /  2.5mm
06:19 28.1 °F /  -2.2 °C 22.4 °F /  -5.3 °C 29.80in /  1009hPa NNW 8.0mph /  12.9km/h 19.0mph /  30.6km/h 79% 0.10in /  2.5mm
06:24 27.9 °F /  -2.3 °C 21.9 °F /  -5.6 °C 29.81in /  1009.4hPa NNW 6.0mph /  9.7km/h 19.0mph /  30.6km/h 78% 0.10in /  2.5mm
06:29 27.7 °F /  -2.4 °C 21.7 °F /  -5.7 °C 29.82in /  1009.7hPa NW 5.0mph /  8km/h 15.0mph /  24.1km/h 78% 0.10in /  2.5mm
06:35 27.4 °F /  -2.6 °C 20.8 °F /  -6.2 °C 29.82in /  1009.7hPa NNW 8.0mph /  12.9km/h 20.0mph /  32.2km/h 76% 0.10in /  2.5mm
06:45 27.1 °F /  -2.7 °C 20.2 °F /  -6.6 °C 29.83in /  1010hPa NNW 10.0mph /  16.1km/h 18.0mph /  29km/h 75% 0.10in /  2.5mm
06:54 26.8 °F /  -2.9 °C 19.6 °F /  -6.9 °C 29.83in /  1010hPa NNW 7.0mph /  11.3km/h 21.0mph /  33.8km/h 74% 0.10in /  2.5mm
06:59 26.7 °F /  -2.9 °C 19.5 °F /  -6.9 °C 29.84in /  1010.4hPa NNW 9.0mph /  14.5km/h 21.0mph /  33.8km/h 74% 0.10in /  2.5mm
07:04 26.5 °F /  -3.1 °C 19.3 °F /  -7.1 °C 29.84in /  1010.4hPa NW 5.0mph /  8km/h 19.0mph /  30.6km/h 74% 0.10in /  2.5mm
07:09 26.3 °F /  -3.2 °C 19.1 °F /  -7.2 °C 29.85in /  1010.7hPa NNW 7.0mph /  11.3km/h 15.0mph /  24.1km/h 74% 0.10in /  2.5mm
07:14 26.3 °F /  -3.2 °C 19.5 °F /  -6.9 °C 29.85in /  1010.7hPa NNW 3.0mph /  4.8km/h 15.0mph /  24.1km/h 75% 0.10in /  2.5mm
07:19 26.3 °F /  -3.2 °C 18.5 °F /  -7.5 °C 29.85in /  1010.7hPa NNW 9.0mph /  14.5km/h 20.0mph /  32.2km/h 72% 0.10in /  2.5mm
07:24 26.2 °F /  -3.2 °C 18.1 °F /  -7.7 °C 29.85in /  1010.7hPa NNW 5.0mph /  8km/h 22.0mph /  35.4km/h 71% 0.10in /  2.5mm
07:34 26.2 °F /  -3.2 °C 18.1 °F /  -7.7 °C 29.86in /  1011.1hPa NNW 9.0mph /  14.5km/h 19.0mph /  30.6km/h 71% 0.10in /  2.5mm
07:40 26.3 °F /  -3.2 °C 17.8 °F /  -7.9 °C 29.87in /  1011.4hPa NNE 5.0mph /  8km/h 19.0mph /  30.6km/h 70% 0.10in /  2.5mm
07:49 26.2 °F /  -3.2 °C 18.1 °F /  -7.7 °C 29.87in /  1011.4hPa NNW 4.0mph /  6.4km/h 9.0mph /  14.5km/h 71% 0.10in /  2.5mm
07:54 26.2 °F /  -3.2 °C 17.4 °F /  -8.1 °C 29.88in /  1011.7hPa NW 10.0mph /  16.1km/h 23.0mph /  37km/h 69% 0.10in /  2.5mm
07:59 26.1 °F /  -3.3 °C 18.0 °F /  -7.8 °C 29.87in /  1011.4hPa NNW 2.0mph /  3.2km/h 23.0mph /  37km/h 71% 0.10in /  2.5mm
08:04 26.1 °F /  -3.3 °C 17.7 °F /  -7.9 °C 29.87in /  1011.4hPa NW 6.0mph /  9.7km/h 17.0mph /  27.4km/h 70% 0.10in /  2.5mm
08:09 26.0 °F /  -3.3 °C 17.6 °F /  -8 °C 29.88in /  1011.7hPa NNW 4.0mph /  6.4km/h 17.0mph /  27.4km/h 70% 0.10in /  2.5mm
08:14 25.9 °F /  -3.4 °C 17.1 °F /  -8.3 °C 29.88in /  1011.7hPa NNW 9.0mph /  14.5km/h 22.0mph /  35.4km/h 69% 0.10in /  2.5mm
08:19 25.7 °F /  -3.5 °C 16.9 °F /  -8.4 °C 29.89in /  1012.1hPa NNW 8.0mph /  12.9km/h 22.0mph /  35.4km/h 69% 0.10in /  2.5mm
08:24 25.6 °F /  -3.6 °C 16.5 °F /  -8.6 °C 29.89in /  1012.1hPa NNW 7.0mph /  11.3km/h 21.0mph /  33.8km/h 68% 0.10in /  2.5mm
08:29 25.5 °F /  -3.6 °C 17.1 °F /  -8.3 °C 29.89in /  1012.1hPa NNW 3.0mph /  4.8km/h 15.0mph /  24.1km/h 70% 0.10in /  2.5mm
08:35 25.4 °F /  -3.7 °C 16.0 °F /  -8.9 °C 29.90in /  1012.4hPa NW 10.0mph /  16.1km/h 21.0mph /  33.8km/h 67% 0.10in /  2.5mm
08:45 24.8 °F /  -4 °C 15.7 °F /  -9.1 °C 29.90in /  1012.4hPa NNW 6.0mph /  9.7km/h 23.0mph /  37km/h 68% 0.10in /  2.5mm
08:54 24.7 °F /  -4.1 °C 15.3 °F /  -9.3 °C 29.91in /  1012.8hPa NW 11.0mph /  17.7km/h 20.0mph /  32.2km/h 67% 0.10in /  2.5mm
08:59 24.6 °F /  -4.1 °C 15.5 °F /  -9.2 °C 29.91in /  1012.8hPa NW 7.0mph /  11.3km/h 20.0mph /  32.2km/h 68% 0.10in /  2.5mm
09:04 24.7 °F /  -4.1 °C 15.6 °F /  -9.1 °C 29.91in /  1012.8hPa NNW 7.0mph /  11.3km/h 23.0mph /  37km/h 68% 0.10in /  2.5mm
09:09 24.6 °F /  -4.1 °C 15.5 °F /  -9.2 °C 29.92in /  1013.1hPa NNW 5.0mph /  8km/h 23.0mph /  37km/h 68% 0.10in /  2.5mm
09:14 24.7 °F /  -4.1 °C 15.6 °F /  -9.1 °C 29.92in /  1013.1hPa NNW 2.0mph /  3.2km/h 18.0mph /  29km/h 68% 0.10in /  2.5mm
09:19 24.9 °F /  -3.9 °C 16.2 °F /  -8.8 °C 29.92in /  1013.1hPa NNW 4.0mph /  6.4km/h 17.0mph /  27.4km/h 69% 0.10in /  2.5mm
09:24 24.9 °F /  -3.9 °C 15.5 °F /  -9.2 °C 29.92in /  1013.1hPa NNW 3.0mph /  4.8km/h 13.0mph /  20.9km/h 67% 0.10in /  2.5mm
09:29 24.9 °F /  -3.9 °C 15.2 °F /  -9.3 °C 29.92in /  1013.1hPa NW 7.0mph /  11.3km/h 15.0mph /  24.1km/h 66% 0.10in /  2.5mm
09:34 24.7 °F /  -4.1 °C 15.0 °F /  -9.4 °C 29.92in /  1013.1hPa NW 7.0mph /  11.3km/h 22.0mph /  35.4km/h 66% 0.10in /  2.5mm
09:39 24.7 °F /  -4.1 °C 15.0 °F /  -9.4 °C 29.92in /  1013.1hPa NNW 6.0mph /  9.7km/h 22.0mph /  35.4km/h 66% 0.10in /  2.5mm
09:45 24.8 °F /  -4 °C 15.4 °F /  -9.2 °C 29.92in /  1013.1hPa NNW 4.0mph /  6.4km/h 20.0mph /  32.2km/h 67% 0.10in /  2.5mm
09:55 24.8 °F /  -4 °C 15.1 °F /  -9.4 °C 29.93in /  1013.4hPa NNW 6.0mph /  9.7km/h 14.0mph /  22.5km/h 66% 0.10in /  2.5mm
10:00 24.5 °F /  -4.2 °C 15.1 °F /  -9.4 °C 29.93in /  1013.4hPa NNW 7.0mph /  11.3km/h 18.0mph /  29km/h 67% 0.10in /  2.5mm
10:09 24.2 °F /  -4.3 °C 15.8 °F /  -9 °C 29.94in /  1013.8hPa NW 5.0mph /  8km/h 19.0mph /  30.6km/h 70% 0.10in /  2.5mm
10:14 23.9 °F /  -4.5 °C 15.5 °F /  -9.2 °C 29.94in /  1013.8hPa NW 10.0mph /  16.1km/h 20.0mph /  32.2km/h 70% 0.10in /  2.5mm
10:19 23.9 °F /  -4.5 °C 15.5 °F /  -9.2 °C 29.94in /  1013.8hPa NNW 8.0mph /  12.9km/h 20.0mph /  32.2km/h 70% 0.10in /  2.5mm
10:24 24.2 °F /  -4.3 °C 15.5 °F /  -9.2 °C 29.95in /  1014.1hPa NNW 6.0mph /  9.7km/h 19.0mph /  30.6km/h 69% 0.10in /  2.5mm
10:29 24.3 °F /  -4.3 °C 14.9 °F /  -9.5 °C 29.94in /  1013.8hPa NNW 8.0mph /  12.9km/h 18.0mph /  29km/h 67% 0.10in /  2.5mm
10:34 24.3 °F /  -4.3 °C 14.2 °F /  -9.9 °C 29.94in /  1013.8hPa NNW 11.0mph /  17.7km/h 20.0mph /  32.2km/h 65% 0.10in /  2.5mm
10:39 24.6 °F /  -4.1 °C 15.5 °F /  -9.2 °C 29.94in /  1013.8hPa North 5.0mph /  8km/h 20.0mph /  32.2km/h 68% 0.10in /  2.5mm
10:44 24.6 °F /  -4.1 °C 15.2 °F /  -9.3 °C 29.95in /  1014.1hPa NW 7.0mph /  11.3km/h 23.0mph /  37km/h 67% 0.10in /  2.5mm
10:49 24.3 °F /  -4.3 °C 14.6 °F /  -9.7 °C 29.95in /  1014.1hPa NW 9.0mph /  14.5km/h 23.0mph /  37km/h 66% 0.10in /  2.5mm
10:54 24.3 °F /  -4.3 °C 13.9 °F /  -10.1 °C 29.95in /  1014.1hPa NW 11.0mph /  17.7km/h 23.0mph /  37km/h 64% 0.10in /  2.5mm
10:59 24.4 °F /  -4.2 °C 15.0 °F /  -9.4 °C 29.95in /  1014.1hPa NNW 5.0mph /  8km/h 19.0mph /  30.6km/h 67% 0.10in /  2.5mm
11:04 24.7 °F /  -4.1 °C 15.0 °F /  -9.4 °C 29.95in /  1014.1hPa NW 9.0mph /  14.5km/h 20.0mph /  32.2km/h 66% 0.10in /  2.5mm
11:10 24.4 °F /  -4.2 °C 13.6 °F /  -10.2 °C 29.95in /  1014.1hPa NNW 11.0mph /  17.7km/h 22.0mph /  35.4km/h 63% 0.10in /  2.5mm
11:19 24.3 °F /  -4.3 °C 13.5 °F /  -10.3 °C 29.96in /  1014.4hPa NW 10.0mph /  16.1km/h 28.0mph /  45.1km/h 63% 0.10in /  2.5mm
11:24 24.5 °F /  -4.2 °C 13.7 °F /  -10.2 °C 29.95in /  1014.1hPa NNW 8.0mph /  12.9km/h 28.0mph /  45.1km/h 63% 0.10in /  2.5mm
11:29 24.9 °F /  -3.9 °C 14.1 °F /  -9.9 °C 29.95in /  1014.1hPa NNW 11.0mph /  17.7km/h 22.0mph /  35.4km/h 63% 0.10in /  2.5mm
11:34 25.6 °F /  -3.6 °C 14.8 °F /  -9.6 °C 29.95in /  1014.1hPa NW 12.0mph /  19.3km/h 23.0mph /  37km/h 63% 0.10in /  2.5mm
11:40 25.7 °F /  -3.5 °C 14.8 °F /  -9.6 °C 29.95in /  1014.1hPa NNW 7.0mph /  11.3km/h 23.0mph /  37km/h 63% 0.10in /  2.5mm
11:49 25.6 °F /  -3.6 °C 14.0 °F /  -10 °C 29.96in /  1014.4hPa NNW 9.0mph /  14.5km/h 19.0mph /  30.6km/h 61% 0.10in /  2.5mm
11:55 25.1 °F /  -3.8 °C 13.2 °F /  -10.4 °C 29.96in /  1014.4hPa NW 8.0mph /  12.9km/h 21.0mph /  33.8km/h 60% 0.10in /  2.5mm
12:05 24.6 °F /  -4.1 °C 13.8 °F /  -10.1 °C 29.96in /  1014.4hPa NW 6.0mph /  9.7km/h 18.0mph /  29km/h 63% 0.10in /  2.5mm
12:14 24.9 °F /  -3.9 °C 14.4 °F /  -9.8 °C 29.96in /  1014.4hPa NW 10.0mph /  16.1km/h 18.0mph /  29km/h 64% 0.10in /  2.5mm
12:19 24.7 °F /  -4.1 °C 14.3 °F /  -9.8 °C 29.96in /  1014.4hPa NNW 8.0mph /  12.9km/h 18.0mph /  29km/h 64% 0.10in /  2.5mm
12:24 24.5 °F /  -4.2 °C 13.7 °F /  -10.2 °C 29.96in /  1014.4hPa NNW 9.0mph /  14.5km/h 22.0mph /  35.4km/h 63% 0.10in /  2.5mm
12:29 24.5 °F /  -4.2 °C 14.1 °F /  -9.9 °C 29.96in /  1014.4hPa North 4.0mph /  6.4km/h 22.0mph /  35.4km/h 64% 0.10in /  2.5mm
12:34 24.8 °F /  -4 °C 14.4 °F /  -9.8 °C 29.96in /  1014.4hPa NW 3.0mph /  4.8km/h 16.0mph /  25.7km/h 64% 0.10in /  2.5mm
12:39 25.1 °F /  -3.8 °C 14.6 °F /  -9.7 °C 29.96in /  1014.4hPa NNW 5.0mph /  8km/h 18.0mph /  29km/h 64% 0.10in /  2.5mm
12:44 25.2 °F /  -3.8 °C 14.0 °F /  -10 °C 29.95in /  1014.1hPa NNW 6.0mph /  9.7km/h 18.0mph /  29km/h 62% 0.10in /  2.5mm
12:50 25.6 °F /  -3.6 °C 14.4 °F /  -9.8 °C 29.96in /  1014.4hPa North 5.0mph /  8km/h 15.0mph /  24.1km/h 62% 0.10in /  2.5mm
12:59 25.5 °F /  -3.6 °C 13.5 °F /  -10.3 °C 29.95in /  1014.1hPa NW 7.0mph /  11.3km/h 23.0mph /  37km/h 60% 0.10in /  2.5mm
13:04 25.4 °F /  -3.7 °C 13.4 °F /  -10.3 °C 29.95in /  1014.1hPa NW 13.0mph /  20.9km/h 25.0mph /  40.2km/h 60% 0.10in /  2.5mm
13:09 25.8 °F /  -3.4 °C 14.6 °F /  -9.7 °C 29.95in /  1014.1hPa North 4.0mph /  6.4km/h 25.0mph /  40.2km/h 62% 0.10in /  2.5mm
13:14 26.0 °F /  -3.3 °C 13.2 °F /  -10.4 °C 29.95in /  1014.1hPa NW 14.0mph /  22.5km/h 23.0mph /  37km/h 58% 0.10in /  2.5mm
13:19 25.9 °F /  -3.4 °C 14.3 °F /  -9.8 °C 29.95in /  1014.1hPa NW 5.0mph /  8km/h 23.0mph /  37km/h 61% 0.10in /  2.5mm
13:25 26.2 °F /  -3.2 °C 14.6 °F /  -9.7 °C 29.95in /  1014.1hPa North 3.0mph /  4.8km/h 20.0mph /  32.2km/h 61% 0.10in /  2.5mm
13:30 26.2 °F /  -3.2 °C 13.4 °F /  -10.3 °C 29.96in /  1014.4hPa NW 10.0mph /  16.1km/h 20.0mph /  32.2km/h 58% 0.10in /  2.5mm
13:39 26.5 °F /  -3.1 °C 13.7 °F /  -10.2 °C 29.95in /  1014.1hPa NNW 8.0mph /  12.9km/h 22.0mph /  35.4km/h 58% 0.10in /  2.5mm
13:44 26.5 °F /  -3.1 °C 14.1 °F /  -9.9 °C 29.95in /  1014.1hPa NW 8.0mph /  12.9km/h 19.0mph /  30.6km/h 59% 0.10in /  2.5mm
13:49 26.6 °F /  -3 °C 14.2 °F /  -9.9 °C 29.96in /  1014.4hPa NNW 10.0mph /  16.1km/h 19.0mph /  30.6km/h 59% 0.10in /  2.5mm
13:54 26.4 °F /  -3.1 °C 13.2 °F /  -10.4 °C 29.95in /  1014.1hPa NW 10.0mph /  16.1km/h 23.0mph /  37km/h 57% 0.10in /  2.5mm
13:59 26.3 °F /  -3.2 °C 13.9 °F /  -10.1 °C 29.95in /  1014.1hPa NNW 8.0mph /  12.9km/h 23.0mph /  37km/h 59% 0.10in /  2.5mm
14:04 26.8 °F /  -2.9 °C 14.8 °F /  -9.6 °C 29.95in /  1014.1hPa NNW 8.0mph /  12.9km/h 25.0mph /  40.2km/h 60% 0.10in /  2.5mm
14:09 27.5 °F /  -2.5 °C 13.4 °F /  -10.3 °C 29.94in /  1013.8hPa NW 10.0mph /  16.1km/h 25.0mph /  40.2km/h 55% 0.10in /  2.5mm
14:14 27.4 °F /  -2.6 °C 13.8 °F /  -10.1 °C 29.94in /  1013.8hPa NW 10.0mph /  16.1km/h 19.0mph /  30.6km/h 56% 0.10in /  2.5mm
14:19 27.6 °F /  -2.4 °C 14.8 °F /  -9.6 °C 29.94in /  1013.8hPa NW 10.0mph /  16.1km/h 22.0mph /  35.4km/h 58% 0.10in /  2.5mm
14:24 27.7 °F /  -2.4 °C 14.0 °F /  -10 °C 29.94in /  1013.8hPa North 7.0mph /  11.3km/h 22.0mph /  35.4km/h 56% 0.10in /  2.5mm
14:29 27.6 °F /  -2.4 °C 14.4 °F /  -9.8 °C 29.95in /  1014.1hPa NNW 9.0mph /  14.5km/h 20.0mph /  32.2km/h 57% 0.10in /  2.5mm
14:34 27.2 °F /  -2.7 °C 14.0 °F /  -10 °C 29.94in /  1013.8hPa NNW 9.0mph /  14.5km/h 23.0mph /  37km/h 57% 0.10in /  2.5mm
14:39 27.3 °F /  -2.6 °C 13.7 °F /  -10.2 °C 29.94in /  1013.8hPa NNW 10.0mph /  16.1km/h 23.0mph /  37km/h 56% 0.10in /  2.5mm
14:44 27.5 °F /  -2.5 °C 14.3 °F /  -9.8 °C 29.94in /  1013.8hPa North 4.0mph /  6.4km/h 22.0mph /  35.4km/h 57% 0.10in /  2.5mm
14:50 27.6 °F /  -2.4 °C 13.9 °F /  -10.1 °C 29.94in /  1013.8hPa NNW 7.0mph /  11.3km/h 22.0mph /  35.4km/h 56% 0.10in /  2.5mm
15:00 27.5 °F /  -2.5 °C 13.0 °F /  -10.6 °C 29.94in /  1013.8hPa NNW 9.0mph /  14.5km/h 25.0mph /  40.2km/h 54% 0.10in /  2.5mm
15:10 27.8 °F /  -2.3 °C 12.9 °F /  -10.6 °C 29.94in /  1013.8hPa NW 13.0mph /  20.9km/h 22.0mph /  35.4km/h 53% 0.10in /  2.5mm
15:19 28.5 °F /  -1.9 °C 13.1 °F /  -10.5 °C 29.94in /  1013.8hPa NNW 8.0mph /  12.9km/h 29.0mph /  46.7km/h 52% 0.10in /  2.5mm
15:24 29.0 °F /  -1.7 °C 14.0 °F /  -10 °C 29.95in /  1014.1hPa NNW 9.0mph /  14.5km/h 19.0mph /  30.6km/h 53% 0.10in /  2.5mm
15:29 28.8 °F /  -1.8 °C 12.9 °F /  -10.6 °C 29.94in /  1013.8hPa NNW 8.0mph /  12.9km/h 23.0mph /  37km/h 51% 0.10in /  2.5mm
15:34 28.9 °F /  -1.7 °C 13.9 °F /  -10.1 °C 29.94in /  1013.8hPa NNW 5.0mph /  8km/h 23.0mph /  37km/h 53% 0.10in /  2.5mm
15:39 29.2 °F /  -1.6 °C 13.8 °F /  -10.1 °C 29.94in /  1013.8hPa NW 7.0mph /  11.3km/h 22.0mph /  35.4km/h 52% 0.10in /  2.5mm
15:44 28.8 °F /  -1.8 °C 12.5 °F /  -10.8 °C 29.95in /  1014.1hPa NW 11.0mph /  17.7km/h 29.0mph /  46.7km/h 50% 0.10in /  2.5mm
15:50 28.7 °F /  -1.8 °C 12.4 °F /  -10.9 °C 29.94in /  1013.8hPa NNW 7.0mph /  11.3km/h 29.0mph /  46.7km/h 50% 0.10in /  2.5mm
15:59 29.5 °F /  -1.4 °C 12.7 °F /  -10.7 °C 29.95in /  1014.1hPa NNW 8.0mph /  12.9km/h 19.0mph /  30.6km/h 49% 0.10in /  2.5mm
16:04 29.7 °F /  -1.3 °C 12.9 °F /  -10.6 °C 29.94in /  1013.8hPa NNW 12.0mph /  19.3km/h 20.0mph /  32.2km/h 49% 0.10in /  2.5mm
16:09 29.4 °F /  -1.4 °C 12.1 °F /  -11.1 °C 29.95in /  1014.1hPa NNW 9.0mph /  14.5km/h 20.0mph /  32.2km/h 48% 0.10in /  2.5mm
16:14 29.8 °F /  -1.2 °C 13.0 °F /  -10.6 °C 29.94in /  1013.8hPa NNW 8.0mph /  12.9km/h 21.0mph /  33.8km/h 49% 0.10in /  2.5mm
16:19 29.7 °F /  -1.3 °C 11.9 °F /  -11.2 °C 29.95in /  1014.1hPa NW 10.0mph /  16.1km/h 25.0mph /  40.2km/h 47% 0.10in /  2.5mm
16:24 29.7 °F /  -1.3 °C 11.9 °F /  -11.2 °C 29.95in /  1014.1hPa NW 14.0mph /  22.5km/h 28.0mph /  45.1km/h 47% 0.10in /  2.5mm
16:29 29.3 °F /  -1.5 °C 10.6 °F /  -11.9 °C 29.95in /  1014.1hPa NNW 17.0mph /  27.4km/h 28.0mph /  45.1km/h 45% 0.10in /  2.5mm
16:34 29.0 °F /  -1.7 °C 10.8 °F /  -11.8 °C 29.94in /  1013.8hPa NNW 12.0mph /  19.3km/h 28.0mph /  45.1km/h 46% 0.10in /  2.5mm
16:39 29.2 °F /  -1.6 °C 10.5 °F /  -11.9 °C 29.95in /  1014.1hPa NW 11.0mph /  17.7km/h 26.0mph /  41.8km/h 45% 0.10in /  2.5mm
16:45 29.2 °F /  -1.6 °C 11.0 °F /  -11.7 °C 29.95in /  1014.1hPa NW 10.0mph /  16.1km/h 24.0mph /  38.6km/h 46% 0.10in /  2.5mm
16:50 29.5 °F /  -1.4 °C 11.7 °F /  -11.3 °C 29.95in /  1014.1hPa NW 14.0mph /  22.5km/h 31.0mph /  49.9km/h 47% 0.10in /  2.5mm
16:55 29.3 °F /  -1.5 °C 11.6 °F /  -11.3 °C 29.95in /  1014.1hPa NW 6.0mph /  9.7km/h 31.0mph /  49.9km/h 47% 0.10in /  2.5mm
17:05 29.4 °F /  -1.4 °C 10.7 °F /  -11.8 °C 29.96in /  1014.4hPa NW 12.0mph /  19.3km/h 26.0mph /  41.8km/h 45% 0.10in /  2.5mm
17:14 30.1 °F /  -1.1 °C 12.3 °F /  -10.9 °C 29.96in /  1014.4hPa NNW 10.0mph /  16.1km/h 24.0mph /  38.6km/h 47% 0.10in /  2.5mm
17:19 30.2 °F /  -1 °C 11.4 °F /  -11.4 °C 29.96in /  1014.4hPa NNW 9.0mph /  14.5km/h 22.0mph /  35.4km/h 45% 0.10in /  2.5mm
17:24 30.6 °F /  -0.8 °C 12.3 °F /  -10.9 °C 29.96in /  1014.4hPa NNW 5.0mph /  8km/h 22.0mph /  35.4km/h 46% 0.10in /  2.5mm
17:30 31.1 °F /  -0.5 °C 12.2 °F /  -11 °C 29.97in /  1014.8hPa NNW 8.0mph /  12.9km/h 17.0mph /  27.4km/h 45% 0.10in /  2.5mm
17:40 31.0 °F /  -0.6 °C 10.0 °F /  -12.2 °C 29.97in /  1014.8hPa NNW 9.0mph /  14.5km/h 20.0mph /  32.2km/h 41% 0.10in /  2.5mm
17:44 30.7 °F /  -0.7 °C 9.8 °F /  -12.3 °C 29.97in /  1014.8hPa NW 10.0mph /  16.1km/h 21.0mph /  33.8km/h 41% 0.10in /  2.5mm
17:49 30.6 °F /  -0.8 °C 9.7 °F /  -12.4 °C 29.97in /  1014.8hPa NNW 11.0mph /  17.7km/h 24.0mph /  38.6km/h 41% 0.10in /  2.5mm
17:54 30.6 °F /  -0.8 °C 10.7 °F /  -11.8 °C 29.97in /  1014.8hPa NNW 4.0mph /  6.4km/h 24.0mph /  38.6km/h 43% 0.10in /  2.5mm
17:59 30.4 °F /  -0.9 °C 8.9 °F /  -12.8 °C 29.97in /  1014.8hPa NNW 10.0mph /  16.1km/h 24.0mph /  38.6km/h 40% 0.10in /  2.5mm
18:04 30.6 °F /  -0.8 °C 9.1 °F /  -12.7 °C 29.97in /  1014.8hPa NNW 10.0mph /  16.1km/h 24.0mph /  38.6km/h 40% 0.10in /  2.5mm
18:09 30.5 °F /  -0.8 °C 9.0 °F /  -12.8 °C 29.97in /  1014.8hPa NNW 7.0mph /  11.3km/h 22.0mph /  35.4km/h 40% 0.10in /  2.5mm
18:14 30.6 °F /  -0.8 °C 10.2 °F /  -12.1 °C 29.97in /  1014.8hPa NNW 8.0mph /  12.9km/h 18.0mph /  29km/h 42% 0.10in /  2.5mm
18:19 30.4 °F /  -0.9 °C 8.4 °F /  -13.1 °C 29.98in /  1015.1hPa NW 12.0mph /  19.3km/h 20.0mph /  32.2km/h 39% 0.10in /  2.5mm
18:24 29.9 °F /  -1.2 °C 7.9 °F /  -13.4 °C 29.98in /  1015.1hPa NW 13.0mph /  20.9km/h 23.0mph /  37km/h 39% 0.10in /  2.5mm
18:29 29.8 °F /  -1.2 °C 9.0 °F /  -12.8 °C 29.98in /  1015.1hPa NNW 7.0mph /  11.3km/h 23.0mph /  37km/h 41% 0.10in /  2.5mm
18:34 29.6 °F /  -1.3 °C 7.1 °F /  -13.8 °C 29.99in /  1015.5hPa NNW 15.0mph /  24.1km/h 29.0mph /  46.7km/h 38% 0.10in /  2.5mm
18:39 29.4 °F /  -1.4 °C 7.5 °F /  -13.6 °C 29.99in /  1015.5hPa NNW 11.0mph /  17.7km/h 29.0mph /  46.7km/h 39% 0.10in /  2.5mm
18:44 29.3 °F /  -1.5 °C 8.0 °F /  -13.3 °C 29.99in /  1015.5hPa NNW 10.0mph /  16.1km/h 24.0mph /  38.6km/h 40% 0.10in /  2.5mm
18:49 29.1 °F /  -1.6 °C 7.2 °F /  -13.8 °C 29.99in /  1015.5hPa NW 15.0mph /  24.1km/h 28.0mph /  45.1km/h 39% 0.10in /  2.5mm
18:54 28.9 °F /  -1.7 °C 8.1 °F /  -13.3 °C 29.99in /  1015.5hPa NNW 5.0mph /  8km/h 28.0mph /  45.1km/h 41% 0.10in /  2.5mm
19:04 28.3 °F /  -2.1 °C 7.0 °F /  -13.9 °C 30.00in /  1015.8hPa NW 8.0mph /  12.9km/h 18.0mph /  29km/h 40% 0.10in /  2.5mm
19:09 28.1 °F /  -2.2 °C 7.4 °F /  -13.7 °C 30.00in /  1015.8hPa NW 9.0mph /  14.5km/h 18.0mph /  29km/h 41% 0.10in /  2.5mm
19:14 28.1 °F /  -2.2 °C 7.4 °F /  -13.7 °C 30.00in /  1015.8hPa NNW 7.0mph /  11.3km/h 19.0mph /  30.6km/h 41% 0.10in /  2.5mm
19:19 28.2 °F /  -2.1 °C 7.0 °F /  -13.9 °C 30.00in /  1015.8hPa NNW 9.0mph /  14.5km/h 20.0mph /  32.2km/h 40% 0.10in /  2.5mm
19:25 28.0 °F /  -2.2 °C 7.3 °F /  -13.7 °C 30.00in /  1015.8hPa NW 6.0mph /  9.7km/h 20.0mph /  32.2km/h 41% 0.10in /  2.5mm
19:34 27.9 °F /  -2.3 °C 6.7 °F /  -14.1 °C 30.01in /  1016.1hPa NW 7.0mph /  11.3km/h 21.0mph /  33.8km/h 40% 0.10in /  2.5mm
19:39 27.9 °F /  -2.3 °C 5.6 °F /  -14.7 °C 30.01in /  1016.1hPa NW 13.0mph /  20.9km/h 26.0mph /  41.8km/h 38% 0.10in /  2.5mm
19:44 27.9 °F /  -2.3 °C 6.1 °F /  -14.4 °C 30.02in /  1016.5hPa NNW 6.0mph /  9.7km/h 26.0mph /  41.8km/h 39% 0.10in /  2.5mm
19:50 27.7 °F /  -2.4 °C 5.9 °F /  -14.5 °C 30.01in /  1016.1hPa NNW 9.0mph /  14.5km/h 20.0mph /  32.2km/h 39% 0.10in /  2.5mm
20:00 27.8 °F /  -2.3 °C 6.0 °F /  -14.4 °C 30.02in /  1016.5hPa NW 9.0mph /  14.5km/h 20.0mph /  32.2km/h 39% 0.10in /  2.5mm
20:09 27.5 °F /  -2.5 °C 6.9 °F /  -13.9 °C 30.02in /  1016.5hPa NNW 6.0mph /  9.7km/h 18.0mph /  29km/h 41% 0.10in /  2.5mm
20:14 27.5 °F /  -2.5 °C 6.3 °F /  -14.3 °C 30.03in /  1016.8hPa NNW 9.0mph /  14.5km/h 19.0mph /  30.6km/h 40% 0.10in /  2.5mm
20:19 27.4 °F /  -2.6 °C 6.8 °F /  -14 °C 30.03in /  1016.8hPa NNW 6.0mph /  9.7km/h 19.0mph /  30.6km/h 41% 0.10in /  2.5mm
20:24 27.2 °F /  -2.7 °C 6.6 °F /  -14.1 °C 30.03in /  1016.8hPa North 6.0mph /  9.7km/h 19.0mph /  30.6km/h 41% 0.10in /  2.5mm
20:29 27.2 °F /  -2.7 °C 6.6 °F /  -14.1 °C 30.03in /  1016.8hPa NNW 7.0mph /  11.3km/h 17.0mph /  27.4km/h 41% 0.10in /  2.5mm
20:34 27.3 °F /  -2.6 °C 7.2 °F /  -13.8 °C 30.04in /  1017.2hPa NNW 6.0mph /  9.7km/h 17.0mph /  27.4km/h 42% 0.10in /  2.5mm
20:39 27.2 °F /  -2.7 °C 7.1 °F /  -13.8 °C 30.04in /  1017.2hPa NNW 6.0mph /  9.7km/h 17.0mph /  27.4km/h 42% 0.10in /  2.5mm
20:44 27.1 °F /  -2.7 °C 7.6 °F /  -13.6 °C 30.05in /  1017.5hPa NNW 3.0mph /  4.8km/h 16.0mph /  25.7km/h 43% 0.10in /  2.5mm
20:49 26.9 °F /  -2.8 °C 7.4 °F /  -13.7 °C 30.05in /  1017.5hPa NNW 4.0mph /  6.4km/h 16.0mph /  25.7km/h 43% 0.10in /  2.5mm
20:54 26.9 °F /  -2.8 °C 7.4 °F /  -13.7 °C 30.05in /  1017.5hPa NNW 8.0mph /  12.9km/h 22.0mph /  35.4km/h 43% 0.10in /  2.5mm
20:59 27.0 °F /  -2.8 °C 7.5 °F /  -13.6 °C 30.05in /  1017.5hPa North 4.0mph /  6.4km/h 22.0mph /  35.4km/h 43% 0.10in /  2.5mm
21:04 27.0 °F /  -2.8 °C 7.5 °F /  -13.6 °C 30.05in /  1017.5hPa NNW 3.0mph /  4.8km/h 21.0mph /  33.8km/h 43% 0.10in /  2.5mm
21:09 26.7 °F /  -2.9 °C 6.1 °F /  -14.4 °C 30.05in /  1017.5hPa NNW 5.0mph /  8km/h 19.0mph /  30.6km/h 41% 0.10in /  2.5mm
21:14 26.5 °F /  -3.1 °C 6.5 °F /  -14.2 °C 30.05in /  1017.5hPa NNW 2.0mph /  3.2km/h 10.0mph /  16.1km/h 42% 0.10in /  2.5mm
21:19 26.3 °F /  -3.2 °C 7.3 °F /  -13.7 °C 30.06in /  1017.8hPa NNW 1.0mph /  1.6km/h 8.0mph /  12.9km/h 44% 0.10in /  2.5mm
21:24 26.1 °F /  -3.3 °C 7.6 °F /  -13.6 °C 30.06in /  1017.8hPa NNW 2.0mph /  3.2km/h 10.0mph /  16.1km/h 45% 0.10in /  2.5mm
21:29 26.0 °F /  -3.3 °C 8.0 °F /  -13.3 °C 30.06in /  1017.8hPa North 3.0mph /  4.8km/h 10.0mph /  16.1km/h 46% 0.10in /  2.5mm
21:34 25.8 °F /  -3.4 °C 6.9 °F /  -13.9 °C 30.06in /  1017.8hPa NNW 3.0mph /  4.8km/h 13.0mph /  20.9km/h 44% 0.10in /  2.5mm
21:40 25.9 °F /  -3.4 °C 7.0 °F /  -13.9 °C 30.07in /  1018.2hPa North 5.0mph /  8km/h 13.0mph /  20.9km/h 44% 0.10in /  2.5mm
21:49 26.0 °F /  -3.3 °C 6.0 °F /  -14.4 °C 30.07in /  1018.2hPa NNE 3.0mph /  4.8km/h 14.0mph /  22.5km/h 42% 0.10in /  2.5mm
21:54 25.8 °F /  -3.4 °C 5.3 °F /  -14.8 °C 30.08in /  1018.5hPa North 3.0mph /  4.8km/h 18.0mph /  29km/h 41% 0.10in /  2.5mm
21:59 25.7 °F /  -3.5 °C 4.7 °F /  -15.2 °C 30.08in /  1018.5hPa NNE 5.0mph /  8km/h 20.0mph /  32.2km/h 40% 0.10in /  2.5mm
22:04 25.7 °F /  -3.5 °C 4.7 °F /  -15.2 °C 30.08in /  1018.5hPa North 5.0mph /  8km/h 20.0mph /  32.2km/h 40% 0.10in /  2.5mm
22:09 25.6 °F /  -3.6 °C 4.6 °F /  -15.2 °C 30.08in /  1018.5hPa North 4.0mph /  6.4km/h 17.0mph /  27.4km/h 40% 0.10in /  2.5mm
22:14 25.4 °F /  -3.7 °C 4.4 °F /  -15.3 °C 30.08in /  1018.5hPa North 6.0mph /  9.7km/h 17.0mph /  27.4km/h 40% 0.10in /  2.5mm
22:19 25.3 °F /  -3.7 °C 4.3 °F /  -15.4 °C 30.08in /  1018.5hPa North 4.0mph /  6.4km/h 13.0mph /  20.9km/h 40% 0.10in /  2.5mm
22:24 25.2 °F /  -3.8 °C 4.8 °F /  -15.1 °C 30.08in /  1018.5hPa North 2.0mph /  3.2km/h 10.0mph /  16.1km/h 41% 0.10in /  2.5mm
22:30 25.1 °F /  -3.8 °C 4.7 °F /  -15.2 °C 30.09in /  1018.8hPa NNE 4.0mph /  6.4km/h 19.0mph /  30.6km/h 41% 0.10in /  2.5mm
22:35 25.1 °F /  -3.8 °C 4.7 °F /  -15.2 °C 30.10in /  1019.2hPa NNW 5.0mph /  8km/h 19.0mph /  30.6km/h 41% 0.10in /  2.5mm
22:44 25.0 °F /  -3.9 °C 3.5 °F /  -15.8 °C 30.10in /  1019.2hPa NNW 7.0mph /  11.3km/h 18.0mph /  29km/h 39% 0.10in /  2.5mm
22:49 24.9 °F /  -3.9 °C 4.0 °F /  -15.6 °C 30.10in /  1019.2hPa NNW 5.0mph /  8km/h 18.0mph /  29km/h 40% 0.10in /  2.5mm
22:54 24.7 °F /  -4.1 °C 4.9 °F /  -15.1 °C 30.10in /  1019.2hPa NNW 2.0mph /  3.2km/h 15.0mph /  24.1km/h 42% 0.10in /  2.5mm
22:59 24.4 °F /  -4.2 °C 4.1 °F /  -15.5 °C 30.11in /  1019.5hPa North 5.0mph /  8km/h 16.0mph /  25.7km/h 41% 0.10in /  2.5mm
23:04 24.4 °F /  -4.2 °C 5.1 °F /  -14.9 °C 30.11in /  1019.5hPa NNW 2.0mph /  3.2km/h 16.0mph /  25.7km/h 43% 0.10in /  2.5mm
23:10 24.2 °F /  -4.3 °C 3.9 °F /  -15.6 °C 30.11in /  1019.5hPa NNW 2.0mph /  3.2km/h 17.0mph /  27.4km/h 41% 0.10in /  2.5mm
23:19 23.9 °F /  -4.5 °C 4.1 °F /  -15.5 °C 30.11in /  1019.5hPa NNW 5.0mph /  8km/h 26.0mph /  41.8km/h 42% 0.10in /  2.5mm
23:24 23.8 °F /  -4.6 °C 4.5 °F /  -15.3 °C 30.12in /  1019.9hPa North 2.0mph /  3.2km/h 26.0mph /  41.8km/h 43% 0.10in /  2.5mm
23:29 23.6 °F /  -4.7 °C 3.3 °F /  -15.9 °C 30.12in /  1019.9hPa NNW 4.0mph /  6.4km/h 16.0mph /  25.7km/h 41% 0.10in /  2.5mm
23:34 23.5 °F /  -4.7 °C 3.2 °F /  -16 °C 30.12in /  1019.9hPa NNE 3.0mph /  4.8km/h 16.0mph /  25.7km/h 41% 0.10in /  2.5mm
23:39 23.5 °F /  -4.7 °C 3.2 °F /  -16 °C 30.12in /  1019.9hPa North 2.0mph /  3.2km/h 15.0mph /  24.1km/h 41% 0.10in /  2.5mm
23:44 23.2 °F /  -4.9 °C 4.0 °F /  -15.6 °C 30.12in /  1019.9hPa North 3.0mph /  4.8km/h 13.0mph /  20.9km/h 43% 0.10in /  2.5mm
23:49 23.0 °F /  -5 °C 2.8 °F /  -16.2 °C 30.12in /  1019.9hPa North 4.0mph /  6.4km/h 12.0mph /  19.3km/h 41% 0.10in /  2.5mm
23:54 23.1 °F /  -4.9 °C 3.4 °F /  -15.9 °C 30.13in /  1020.2hPa North 2.0mph /  3.2km/h 12.0mph /  19.3km/h 42% 0.10in /  2.5mm
Westford Weather
Compliments of Weather Underground

 
 
Current Radar Loop:

Copyright © WestfordWeather.net 2007-2014. All rights reserved.